Time;durP1;ratioP1;P1;durP2;ratioP2;P2;SDS_P1;SDS_P2;PMS_P1;PMS_P2;Temp;Humidity;BMP_temperature;BMP_pressure;BME280_temperature;BME280_humidity;BME280_pressure;Samples;Min_cycle;Max_cycle;Signal;HPM_P1;HPM_P2
2023/10/01 00:00:17;;;;;;;19.50;10.13;;;20.00;99.90;;;;;;5053866;28;20118;-57
2023/10/01 00:02:43;;;;;;;20.27;9.45;;;19.90;99.90;;;;;;5054048;28;20040;-57
2023/10/01 00:05:10;;;;;;;17.45;10.05;;;19.90;99.90;;;;;;5053633;28;20033;-56
2023/10/01 00:07:40;;;;;;;16.05;9.93;;;19.90;99.90;;;;;;5053739;28;20021;-56
2023/10/01 00:10:10;;;;;;;16.95;8.77;;;19.90;99.90;;;;;;5053581;28;20032;-57
2023/10/01 00:12:45;;;;;;;19.60;10.90;;;19.70;99.90;;;;;;5053330;28;20472;-57
2023/10/01 00:15:14;;;;;;;18.98;11.30;;;19.70;99.90;;;;;;5053651;28;20021;-56
2023/10/01 00:17:44;;;;;;;21.33;10.20;;;19.60;99.90;;;;;;5053310;28;20031;-56
2023/10/01 00:22:50;;;;;;;19.77;10.07;;;19.70;99.90;;;;;;5053390;28;20025;-56
2023/10/01 00:25:17;;;;;;;22.38;10.15;;;19.80;99.90;;;;;;5053261;28;20427;-57
2023/10/01 00:27:43;;;;;;;18.55;9.80;;;19.60;99.90;;;;;;5053105;28;20021;-56
2023/10/01 00:30:11;;;;;;;18.45;10.35;;;19.70;99.90;;;;;;5053625;28;20025;-56
2023/10/01 00:32:38;;;;;;;18.10;10.00;;;19.70;99.90;;;;;;5018402;28;20041;-57
2023/10/01 00:35:05;;;;;;;22.05;9.77;;;19.60;99.90;;;;;;5053427;28;20361;-55
2023/10/01 00:37:32;;;;;;;16.73;10.40;;;19.60;99.90;;;;;;4985135;28;20128;-56
2023/10/01 00:39:59;;;;;;;19.10;11.55;;;;;;;;;;5034598;28;20174;-55
2023/10/01 00:42:27;;;;;;;17.38;10.35;;;19.50;99.90;;;;;;5053266;28;20037;-56
2023/10/01 00:44:53;;;;;;;20.80;10.60;;;19.50;99.90;;;;;;5052961;28;20071;-57
2023/10/01 00:47:21;;;;;;;17.40;10.45;;;19.40;99.90;;;;;;5052766;28;20068;-55
2023/10/01 00:49:47;;;;;;;21.75;10.48;;;;;;;;;;5052985;28;20056;-56
2023/10/01 00:52:19;;;;;;;18.08;9.85;;;19.30;99.90;;;;;;5053048;28;20398;-56
2023/10/01 00:54:47;;;;;;;17.27;10.57;;;19.20;99.90;;;;;;5052956;28;20370;-55
2023/10/01 00:57:17;;;;;;;19.02;10.18;;;19.20;99.90;;;;;;5017561;28;20037;-56
2023/10/01 00:59:44;;;;;;;18.90;10.07;;;19.10;99.90;;;;;;5052843;28;20029;-57
2023/10/01 01:02:15;;;;;;;18.90;10.38;;;19.00;99.90;;;;;;5034517;28;20033;-56
2023/10/01 01:04:45;;;;;;;18.48;10.85;;;19.00;99.90;;;;;;5053344;28;20029;-56
2023/10/01 01:07:19;;;;;;;21.77;11.18;;;;;;;;;;5052821;28;20366;-56
2023/10/01 01:09:46;;;;;;;18.30;10.52;;;18.90;99.90;;;;;;5052779;28;20032;-55
2023/10/01 01:12:13;;;;;;;19.02;10.40;;;18.90;99.90;;;;;;5034234;28;20041;-55
2023/10/01 01:14:39;;;;;;;20.38;10.25;;;19.00;99.90;;;;;;5052653;28;20029;-55
2023/10/01 01:17:05;;;;;;;20.88;10.93;;;19.10;99.90;;;;;;5052818;28;20477;-57
2023/10/01 01:19:34;;;;;;;18.45;10.50;;;19.00;99.90;;;;;;5052568;28;20031;-57
2023/10/01 01:22:02;;;;;;;19.13;10.20;;;19.00;99.90;;;;;;5052891;28;20029;-56
2023/10/01 01:24:31;;;;;;;16.52;9.63;;;19.00;99.90;;;;;;5052538;28;20040;-57
2023/10/01 01:27:05;;;;;;;19.02;10.50;;;18.90;99.90;;;;;;5052568;28;20131;-55
2023/10/01 01:29:40;;;;;;;19.90;10.20;;;18.80;99.90;;;;;;5052863;28;20395;-56
2023/10/01 01:32:15;;;;;;;18.25;11.10;;;18.80;99.90;;;;;;5052435;28;20033;-56
2023/10/01 01:34:44;;;;;;;19.40;11.38;;;18.80;99.90;;;;;;5052631;28;20037;-55
2023/10/01 01:37:19;;;;;;;20.50;10.27;;;18.70;99.90;;;;;;5017509;28;20036;-56
2023/10/01 01:39:54;;;;;;;21.88;10.18;;;18.70;99.90;;;;;;5051844;28;20033;-57
2023/10/01 01:42:21;;;;;;;22.45;10.23;;;18.60;99.90;;;;;;5052005;28;20029;-57
2023/10/01 01:45:15;;;;;;;18.08;10.45;;;;;;;;;;5033395;28;20128;-57
2023/10/01 01:47:39;;;;;;;23.52;10.38;;;18.50;99.90;;;;;;5052380;28;20055;-55
2023/10/01 01:50:19;;;;;;;20.30;10.57;;;18.50;99.90;;;;;;5033920;28;20511;-55
2023/10/01 01:52:52;;;;;;;22.23;10.13;;;18.50;99.90;;;;;;5050820;28;20044;-56
2023/10/01 01:55:28;;;;;;;18.98;10.85;;;18.60;99.90;;;;;;5052326;28;20064;-55
2023/10/01 01:58:10;;;;;;;18.48;10.13;;;18.50;99.90;;;;;;5052529;28;20027;-56
2023/10/01 02:00:38;;;;;;;23.25;10.98;;;18.50;99.90;;;;;;5052339;28;20036;-57
2023/10/01 02:03:10;;;;;;;20.02;10.02;;;18.50;99.90;;;;;;5052723;28;20021;-55
2023/10/01 02:05:38;;;;;;;17.73;11.55;;;18.50;99.90;;;;;;5052246;28;20078;-57
2023/10/01 02:08:06;;;;;;;22.45;10.77;;;18.40;99.90;;;;;;5052914;28;20025;-55
2023/10/01 02:10:44;;;;;;;22.05;12.00;;;18.50;99.90;;;;;;5021213;28;20072;-57
2023/10/01 02:13:12;;;;;;;22.23;10.82;;;18.40;99.90;;;;;;5055647;28;20391;-55
2023/10/01 02:15:38;;;;;;;18.50;10.90;;;18.40;99.90;;;;;;5037117;28;20053;-55
2023/10/01 02:18:04;;;;;;;19.38;10.82;;;18.30;99.90;;;;;;5055393;28;20037;-56
2023/10/01 02:20:33;;;;;;;21.52;10.43;;;18.40;99.90;;;;;;5055631;28;20393;-57
2023/10/01 02:23:02;;;;;;;19.25;11.25;;;18.40;99.90;;;;;;5055642;28;20033;-55
2023/10/01 02:25:38;;;;;;;18.55;10.13;;;18.40;99.90;;;;;;5055441;28;20163;-57
2023/10/01 02:28:15;;;;;;;19.48;10.40;;;18.40;99.90;;;;;;5055555;28;20033;-57
2023/10/01 02:30:41;;;;;;;23.13;11.90;;;18.40;99.90;;;;;;5053783;28;20480;-56
2023/10/01 02:33:20;;;;;;;20.50;10.52;;;18.50;99.90;;;;;;5055291;28;20037;-55
2023/10/01 02:35:49;;;;;;;19.17;10.18;;;18.50;99.90;;;;;;5055627;28;20080;-56
2023/10/01 02:41:02;;;;;;;19.58;10.70;;;18.30;99.90;;;;;;5055654;28;20058;-57
2023/10/01 02:43:40;;;;;;;18.58;9.95;;;18.50;99.90;;;;;;5057539;28;20119;-57
2023/10/01 02:46:12;;;;;;;16.98;10.45;;;18.50;99.90;;;;;;5055611;28;20074;-57
2023/10/01 02:48:41;;;;;;;17.42;9.52;;;18.50;99.90;;;;;;5055126;28;20126;-55
2023/10/01 02:51:17;;;;;;;17.75;9.65;;;18.50;99.90;;;;;;5054891;28;20048;-56
2023/10/01 02:54:01;;;;;;;18.38;9.48;;;18.60;99.90;;;;;;5055188;28;20033;-56
2023/10/01 02:56:37;;;;;;;21.27;9.93;;;18.70;99.90;;;;;;5036902;28;20040;-56
2023/10/01 02:59:13;;;;;;;19.13;10.20;;;18.60;99.90;;;;;;5055084;28;20380;-55
2023/10/01 03:01:42;;;;;;;18.15;10.30;;;18.70;99.90;;;;;;5054892;28;20488;-57
2023/10/01 03:04:18;;;;;;;19.90;10.25;;;18.60;99.90;;;;;;5054827;28;20037;-56
2023/10/01 03:06:52;;;;;;;17.52;10.38;;;18.60;99.90;;;;;;5054835;28;20021;-55
2023/10/01 03:09:34;;;;;;;16.85;9.65;;;18.50;99.90;;;;;;5054636;28;20041;-56
2023/10/01 03:15:16;;;;;;;20.08;9.93;;;;;;;;;;5054755;28;20048;-56
2023/10/01 03:17:57;;;;;;;19.77;9.68;;;18.40;99.90;;;;;;5054580;28;20079;-56
2023/10/01 03:23:12;;;;;;;21.57;10.83;;;18.40;99.90;;;;;;5054490;28;20461;-56
2023/10/01 03:25:56;;;;;;;17.85;9.82;;;18.40;99.90;;;;;;5054532;28;20380;-56
2023/10/01 03:28:28;;;;;;;19.55;11.10;;;18.40;99.90;;;;;;5054290;28;20127;-57
2023/10/01 03:31:08;;;;;;;18.73;10.57;;;18.40;99.90;;;;;;5054242;28;20082;-54
2023/10/01 03:33:40;;;;;;;15.90;8.50;;;18.40;99.90;;;;;;5054086;28;20110;-57
2023/10/01 03:36:10;;;;;;;18.42;8.50;;;18.30;99.90;;;;;;5054225;28;20457;-57
2023/10/01 03:38:44;;;;;;;18.17;10.63;;;18.20;99.90;;;;;;5054084;28;20100;-57
2023/10/01 03:41:20;;;;;;;21.63;9.88;;;18.20;99.90;;;;;;5054104;28;20121;-56
2023/10/01 03:43:50;;;;;;;20.90;10.23;;;18.20;99.90;;;;;;5053764;28;20497;-56
2023/10/01 03:51:31;;;;;;;15.82;9.52;;;18.30;99.90;;;;;;5054091;28;20025;-55
2023/10/01 03:54:06;;;;;;;22.35;10.07;;;18.20;99.90;;;;;;5053942;28;20072;-55
2023/10/01 03:56:36;;;;;;;16.20;8.65;;;18.20;99.90;;;;;;5053714;28;20106;-55
2023/10/01 03:59:10;;;;;;;15.27;7.95;;;18.00;99.90;;;;;;5054351;28;20033;-57
2023/10/01 04:01:58;;;;;;;19.13;9.63;;;18.00;99.90;;;;;;5053744;28;20035;-56
2023/10/01 04:04:23;;;;;;;16.42;8.27;;;18.00;99.90;;;;;;5053592;28;20035;-57
2023/10/01 04:06:50;;;;;;;18.90;11.18;;;18.00;99.90;;;;;;5053718;28;20040;-55
2023/10/01 04:09:19;;;;;;;19.50;10.23;;;17.90;99.90;;;;;;5019252;28;20037;-55
2023/10/01 04:11:51;;;;;;;16.65;9.00;;;18.00;99.90;;;;;;5053560;28;20388;-58
2023/10/01 04:14:18;;;;;;;18.50;9.15;;;18.00;99.90;;;;;;5053626;28;20048;-55
2023/10/01 04:16:46;;;;;;;16.42;9.38;;;18.10;99.90;;;;;;5053666;28;20515;-57
2023/10/01 04:19:19;;;;;;;14.40;8.57;;;17.90;99.90;;;;;;5053129;28;20036;-56
2023/10/01 04:21:50;;;;;;;17.77;9.43;;;17.90;99.90;;;;;;5053252;28;20032;-56
2023/10/01 04:24:19;;;;;;;17.67;8.57;;;17.90;99.90;;;;;;5053578;28;20377;-57
2023/10/01 04:26:46;;;;;;;17.02;9.55;;;17.90;99.90;;;;;;5053435;28;20036;-57
2023/10/01 04:29:16;;;;;;;16.50;8.63;;;;;;;;;;5053175;28;20074;-57
2023/10/01 04:31:42;;;;;;;15.57;8.93;;;;;;;;;;5052527;28;20029;-56
2023/10/01 04:34:11;;;;;;;15.85;9.02;;;;;;;;;;5053016;28;20047;-56
2023/10/01 04:36:42;;;;;;;16.25;9.00;;;;;;;;;;5053042;28;20021;-58
2023/10/01 04:39:08;;;;;;;17.83;9.82;;;;;;;;;;5053506;28;20025;-55
2023/10/01 04:41:34;;;;;;;17.73;8.70;;;;;;;;;;5053038;28;20029;-57
2023/10/01 04:44:07;;;;;;;15.88;8.68;;;;;;;;;;5053005;28;20037;-58
2023/10/01 04:46:37;;;;;;;15.38;8.75;;;;;;;;;;5053033;28;20063;-56
2023/10/01 04:49:26;;;;;;;14.95;8.98;;;;;;;;;;5052123;28;20056;-57
2023/10/01 04:51:55;;;;;;;14.13;9.05;;;;;;;;;;5052473;28;20044;-57
2023/10/01 04:54:21;;;;;;;15.93;9.07;;;;;;;;;;5053051;28;20036;-57
2023/10/01 04:56:48;;;;;;;15.10;8.68;;;;;;;;;;5052957;28;20388;-56
2023/10/01 04:59:15;;;;;;;14.43;7.88;;;;;;;;;;5052999;28;20025;-55
2023/10/01 05:01:41;;;;;;;14.10;8.32;;;;;;;;;;5052722;28;20464;-56
2023/10/01 05:04:11;;;;;;;17.15;9.05;;;;;;;;;;5053292;28;20025;-57
2023/10/01 05:06:43;;;;;;;15.18;9.32;;;;;;;;;;5053160;28;20021;-57
2023/10/01 05:09:09;;;;;;;15.02;8.23;;;;;;;;;;5052476;28;20032;-55
2023/10/01 05:11:35;;;;;;;17.90;8.65;;;;;;;;;;5053056;28;20029;-58
2023/10/01 05:14:04;;;;;;;15.45;7.70;;;;;;;;;;5052991;28;20029;-56
2023/10/01 05:16:38;;;;;;;16.55;8.10;;;;;;;;;;5068023;28;20392;-56
2023/10/01 05:19:10;;;;;;;14.57;7.68;;;;;;;;;;5052614;28;20032;-57
2023/10/01 05:21:46;;;;;;;14.82;8.07;;;;;;;;;;5053082;28;20499;-56
2023/10/01 05:24:15;;;;;;;16.17;8.27;;;;;;;;;;5052627;28;20078;-58
2023/10/01 05:26:44;;;;;;;15.98;7.95;;;;;;;;;;5052610;28;20047;-57
2023/10/01 05:29:13;;;;;;;14.30;8.20;;;;;;;;;;5053096;28;20457;-58
2023/10/01 05:31:40;;;;;;;13.02;7.95;;;;;;;;;;5052966;28;20102;-57
2023/10/01 05:34:06;;;;;;;17.73;8.40;;;;;;;;;;5067931;28;20452;-56
2023/10/01 05:36:35;;;;;;;16.15;7.78;;;;;;;;;;5052570;28;20025;-57
2023/10/01 05:39:01;;;;;;;13.48;7.63;;;;;;;;;;5052709;28;20452;-58
2023/10/01 05:41:32;;;;;;;14.77;7.45;;;;;;;;;;5052862;28;20487;-55
2023/10/01 05:44:01;;;;;;;11.77;6.13;;;;;;;;;;5056211;28;20531;-56
2023/10/01 05:46:29;;;;;;;11.25;6.32;;;;;;;;;;5055731;28;20029;-56
2023/10/01 05:49:00;;;;;;;12.68;6.65;;;;;;;;;;5055937;28;20083;-56
2023/10/01 05:51:42;;;;;;;14.13;6.65;;;17.90;99.90;;;;;;5056299;28;20114;-58
2023/10/01 05:54:09;;;;;;;17.73;7.22;;;17.80;99.90;;;;;;5039682;28;20140;-56
2023/10/01 05:56:39;;;;;;;13.95;7.22;;;17.70;99.90;;;;;;5056155;28;20461;-56
2023/10/01 05:59:06;;;;;;;15.27;7.55;;;17.80;99.90;;;;;;5056287;28;20057;-57
2023/10/01 06:01:33;;;;;;;13.15;7.10;;;17.90;99.90;;;;;;5056079;28;20033;-56
2023/10/01 06:04:00;;;;;;;9.95;5.85;;;18.10;99.90;;;;;;5056036;28;20063;-59
2023/10/01 06:06:26;;;;;;;14.02;6.10;;;18.00;99.90;;;;;;5055939;28;20071;-57
2023/10/01 06:08:58;;;;;;;14.75;7.47;;;18.00;99.90;;;;;;5055838;28;20056;-56
2023/10/01 06:17:00;;;;;;;11.73;5.72;;;18.40;99.90;;;;;;5055712;28;20040;-56
2023/10/01 06:19:32;;;;;;;10.93;5.70;;;18.50;99.90;;;;;;5055957;28;20040;-57
2023/10/01 06:22:12;;;;;;;;;;;18.40;99.90;;;;;;5055892;28;20594;-58
2023/10/01 06:24:47;;;;;;;10.45;6.22;;;18.40;99.90;;;;;;5055438;28;19924;-58
2023/10/01 06:27:17;;;;;;;11.40;5.85;;;18.50;99.90;;;;;;5055570;28;20032;-58
2023/10/01 06:29:50;;;;;;;11.10;6.03;;;18.30;99.90;;;;;;5055398;28;20059;-56
2023/10/01 08:34:23;;;;;;;9.00;5.65;;;19.90;99.90;;;;;;5042191;28;20024;-57
2023/10/01 08:36:56;;;;;;;8.32;5.60;;;20.20;99.90;;;;;;5049088;28;20020;-59
2023/10/01 08:39:47;;;;;;;8.05;5.32;;;20.10;99.90;;;;;;5049419;28;20044;-57
2023/10/01 08:42:16;;;;;;;10.13;5.53;;;20.00;99.90;;;;;;5056788;27;20832;-57
2023/10/01 08:44:54;;;;;;;9.63;5.18;;;20.00;99.90;;;;;;5062054;28;20051;-56
2023/10/01 08:47:31;;;;;;;12.23;5.80;;;20.00;99.90;;;;;;5048440;28;21336;-57
